Korneuburg, Austria
Current Conditions -  °F | °C
As of 6:20 PM on Sunday 21 Dec 2014 (Local Time) from LOWW Reporting Station
Scattered Clouds Scattered Clouds  
Wind Chill: 37°   Ceiling: Unl
Heat Index: 43°   Visibility: 6mi
Dew Point: 32°   Wind: 12mph
Humidity: 66%   Direction: 290°WNW
Pressure: 30.36"   Gusts: NA
Location:  48.35°N, 16.35°E
Report Text: LOWW 211620Z 29010KT 9999 SCT050 SCT250 06/00 Q1028 NOSIG
Loading
Personal Weather Stations






























Interactive Weather Map New forecast layout! Learn more

10-Day Weather Forecast

Advertisements
Track Severe Weather on mobile